Terminal Aerodrome Forecast
Issued by NWS St Louis, MO

Home | Current Version | Previous Version | Text Only | Print | Product List | Glossary On
Versions: 1 2 3 4 5 6 7 8 9 10 11 12 13 14 15 16 17 18 19 20 21 22 23
000
FTUS43 KLSX 070500
TAFCOU
TAF
KCOU 070530Z 0706/0806 20012KT P6SM BKN050 OVC250
     FM070800 23009KT P6SM VCSH BKN050
     FM071300 27011KT P6SM SCT040 BKN120
     FM072300 23008KT P6SM VCTS SCT040CB BKN120=

USA.gov is the U.S. government's official web portal to all federal, state and local government web resources and services.